sensor_id;sensor_type;location;lat;lon;timestamp;P1;durP1;ratioP1;P2;durP2;ratioP2
75169;SDS011;63749;49.186;9.222;2023-02-11T00:00:02;95.20;;;36.60;;
75169;SDS011;63749;49.186;9.222;2023-02-11T00:02:30;92.65;;;34.25;;
75169;SDS011;63749;49.186;9.222;2023-02-11T00:04:55;92.10;;;34.10;;
75169;SDS011;63749;49.186;9.222;2023-02-11T00:07:21;93.73;;;33.23;;
75169;SDS011;63749;49.186;9.222;2023-02-11T00:09:46;89.63;;;33.13;;
75169;SDS011;63749;49.186;9.222;2023-02-11T00:12:11;97.10;;;36.27;;
75169;SDS011;63749;49.186;9.222;2023-02-11T00:14:37;89.53;;;33.77;;
75169;SDS011;63749;49.186;9.222;2023-02-11T00:17:02;87.00;;;33.20;;
75169;SDS011;63749;49.186;9.222;2023-02-11T00:19:28;85.80;;;31.33;;
75169;SDS011;63749;49.186;9.222;2023-02-11T00:21:53;90.57;;;32.77;;
75169;SDS011;63749;49.186;9.222;2023-02-11T00:24:18;90.00;;;33.37;;
75169;SDS011;63749;49.186;9.222;2023-02-11T00:26:43;90.53;;;33.03;;
75169;SDS011;63749;49.186;9.222;2023-02-11T00:29:09;90.60;;;32.23;;
75169;SDS011;63749;49.186;9.222;2023-02-11T00:31:34;82.97;;;31.23;;
75169;SDS011;63749;49.186;9.222;2023-02-11T00:34:00;88.53;;;32.58;;
75169;SDS011;63749;49.186;9.222;2023-02-11T00:36:26;84.70;;;31.50;;
75169;SDS011;63749;49.186;9.222;2023-02-11T00:38:53;80.72;;;31.65;;
75169;SDS011;63749;49.186;9.222;2023-02-11T00:41:20;81.45;;;30.80;;
75169;SDS011;63749;49.186;9.222;2023-02-11T00:43:46;82.30;;;30.30;;
75169;SDS011;63749;49.186;9.222;2023-02-11T00:46:12;84.93;;;30.33;;
75169;SDS011;63749;49.186;9.222;2023-02-11T00:48:38;78.95;;;29.00;;
75169;SDS011;63749;49.186;9.222;2023-02-11T00:51:04;79.47;;;28.85;;
75169;SDS011;63749;49.186;9.222;2023-02-11T00:53:30;83.70;;;29.33;;
75169;SDS011;63749;49.186;9.222;2023-02-11T00:55:56;76.55;;;29.17;;
75169;SDS011;63749;49.186;9.222;2023-02-11T00:58:21;75.33;;;28.40;;
75169;SDS011;63749;49.186;9.222;2023-02-11T01:00:47;76.57;;;29.23;;
75169;SDS011;63749;49.186;9.222;2023-02-11T01:03:12;82.13;;;30.25;;
75169;SDS011;63749;49.186;9.222;2023-02-11T01:05:38;80.37;;;29.83;;
75169;SDS011;63749;49.186;9.222;2023-02-11T01:08:03;79.47;;;30.13;;
75169;SDS011;63749;49.186;9.222;2023-02-11T01:10:29;79.10;;;29.95;;
75169;SDS011;63749;49.186;9.222;2023-02-11T01:12:54;76.40;;;29.17;;
75169;SDS011;63749;49.186;9.222;2023-02-11T01:15:20;74.80;;;29.20;;
75169;SDS011;63749;49.186;9.222;2023-02-11T01:17:46;68.45;;;28.55;;
75169;SDS011;63749;49.186;9.222;2023-02-11T01:20:15;77.17;;;28.57;;
75169;SDS011;63749;49.186;9.222;2023-02-11T01:22:43;69.20;;;27.00;;
75169;SDS011;63749;49.186;9.222;2023-02-11T01:25:08;71.10;;;26.83;;
75169;SDS011;63749;49.186;9.222;2023-02-11T01:27:34;70.00;;;27.10;;
75169;SDS011;63749;49.186;9.222;2023-02-11T01:30:00;71.13;;;28.17;;
75169;SDS011;63749;49.186;9.222;2023-02-11T01:32:26;66.90;;;26.35;;
75169;SDS011;63749;49.186;9.222;2023-02-11T01:34:51;72.60;;;26.40;;
75169;SDS011;63749;49.186;9.222;2023-02-11T01:37:16;63.93;;;26.13;;
75169;SDS011;63749;49.186;9.222;2023-02-11T01:39:42;67.97;;;26.77;;
75169;SDS011;63749;49.186;9.222;2023-02-11T01:42:10;64.10;;;26.05;;
75169;SDS011;63749;49.186;9.222;2023-02-11T01:44:42;66.87;;;26.60;;
75169;SDS011;63749;49.186;9.222;2023-02-11T01:47:08;69.57;;;27.55;;
75169;SDS011;63749;49.186;9.222;2023-02-11T01:49:35;59.20;;;25.47;;
75169;SDS011;63749;49.186;9.222;2023-02-11T01:52:32;59.88;;;25.50;;
75169;SDS011;63749;49.186;9.222;2023-02-11T01:55:02;64.00;;;25.20;;
75169;SDS011;63749;49.186;9.222;2023-02-11T01:57:53;60.80;;;25.02;;
75169;SDS011;63749;49.186;9.222;2023-02-11T02:00:22;60.87;;;24.90;;
75169;SDS011;63749;49.186;9.222;2023-02-11T02:08:18;62.05;;;24.88;;
75169;SDS011;63749;49.186;9.222;2023-02-11T02:10:49;59.28;;;23.73;;
75169;SDS011;63749;49.186;9.222;2023-02-11T02:13:20;57.97;;;23.93;;
75169;SDS011;63749;49.186;9.222;2023-02-11T02:15:48;57.90;;;24.75;;
75169;SDS011;63749;49.186;9.222;2023-02-11T02:18:25;59.90;;;24.67;;
75169;SDS011;63749;49.186;9.222;2023-02-11T02:40:34;56.17;;;23.20;;
75169;SDS011;63749;49.186;9.222;2023-02-11T02:43:05;53.22;;;23.35;;
75169;SDS011;63749;49.186;9.222;2023-02-11T02:45:32;54.83;;;23.20;;
75169;SDS011;63749;49.186;9.222;2023-02-11T02:47:58;57.87;;;23.97;;
75169;SDS011;63749;49.186;9.222;2023-02-11T02:50:26;56.30;;;23.50;;
75169;SDS011;63749;49.186;9.222;2023-02-11T02:55:29;50.47;;;23.40;;
75169;SDS011;63749;49.186;9.222;2023-02-11T02:58:22;52.08;;;23.77;;
75169;SDS011;63749;49.186;9.222;2023-02-11T03:01:07;52.03;;;23.25;;
75169;SDS011;63749;49.186;9.222;2023-02-11T03:09:50;53.20;;;22.07;;
75169;SDS011;63749;49.186;9.222;2023-02-11T03:12:16;53.85;;;22.52;;
75169;SDS011;63749;49.186;9.222;2023-02-11T03:14:44;50.45;;;22.60;;
75169;SDS011;63749;49.186;9.222;2023-02-11T03:17:10;50.22;;;22.80;;
75169;SDS011;63749;49.186;9.222;2023-02-11T03:19:39;56.20;;;23.33;;
75169;SDS011;63749;49.186;9.222;2023-02-11T03:22:09;50.73;;;22.87;;
75169;SDS011;63749;49.186;9.222;2023-02-11T03:24:38;57.42;;;24.05;;
75169;SDS011;63749;49.186;9.222;2023-02-11T03:27:07;46.08;;;21.88;;
75169;SDS011;63749;49.186;9.222;2023-02-11T03:29:38;49.78;;;21.83;;
75169;SDS011;63749;49.186;9.222;2023-02-11T03:32:15;50.55;;;21.70;;
75169;SDS011;63749;49.186;9.222;2023-02-11T03:40:18;46.45;;;21.98;;
75169;SDS011;63749;49.186;9.222;2023-02-11T03:42:57;46.88;;;21.60;;
75169;SDS011;63749;49.186;9.222;2023-02-11T03:45:25;51.75;;;22.60;;
75169;SDS011;63749;49.186;9.222;2023-02-11T03:47:57;48.87;;;21.93;;
75169;SDS011;63749;49.186;9.222;2023-02-11T03:50:25;48.92;;;22.02;;
75169;SDS011;63749;49.186;9.222;2023-02-11T03:52:52;48.38;;;22.42;;
75169;SDS011;63749;49.186;9.222;2023-02-11T03:55:19;49.85;;;21.83;;
75169;SDS011;63749;49.186;9.222;2023-02-11T03:57:47;50.30;;;21.98;;
75169;SDS011;63749;49.186;9.222;2023-02-11T04:00:13;52.57;;;21.70;;
75169;SDS011;63749;49.186;9.222;2023-02-11T04:02:39;48.40;;;21.15;;
75169;SDS011;63749;49.186;9.222;2023-02-11T04:05:06;51.08;;;22.08;;
75169;SDS011;63749;49.186;9.222;2023-02-11T04:07:33;47.30;;;21.65;;
75169;SDS011;63749;49.186;9.222;2023-02-11T04:09:58;50.70;;;22.47;;
75169;SDS011;63749;49.186;9.222;2023-02-11T04:12:24;48.53;;;21.83;;
75169;SDS011;63749;49.186;9.222;2023-02-11T04:14:49;46.80;;;21.43;;
75169;SDS011;63749;49.186;9.222;2023-02-11T04:17:15;51.00;;;21.42;;
75169;SDS011;63749;49.186;9.222;2023-02-11T04:19:40;47.30;;;21.43;;
75169;SDS011;63749;49.186;9.222;2023-02-11T04:22:05;50.67;;;22.10;;
75169;SDS011;63749;49.186;9.222;2023-02-11T04:24:31;47.17;;;21.33;;
75169;SDS011;63749;49.186;9.222;2023-02-11T04:26:56;49.03;;;21.70;;
75169;SDS011;63749;49.186;9.222;2023-02-11T04:29:22;49.50;;;21.77;;
75169;SDS011;63749;49.186;9.222;2023-02-11T04:31:47;48.72;;;21.50;;
75169;SDS011;63749;49.186;9.222;2023-02-11T04:34:13;48.90;;;21.17;;
75169;SDS011;63749;49.186;9.222;2023-02-11T04:36:38;47.70;;;21.70;;
75169;SDS011;63749;49.186;9.222;2023-02-11T04:39:04;45.87;;;21.90;;
75169;SDS011;63749;49.186;9.222;2023-02-11T04:41:29;46.03;;;21.53;;
75169;SDS011;63749;49.186;9.222;2023-02-11T04:43:55;48.43;;;21.83;;
75169;SDS011;63749;49.186;9.222;2023-02-11T04:46:20;49.53;;;21.40;;
75169;SDS011;63749;49.186;9.222;2023-02-11T04:48:47;44.35;;;20.08;;
75169;SDS011;63749;49.186;9.222;2023-02-11T04:51:13;44.93;;;21.03;;
75169;SDS011;63749;49.186;9.222;2023-02-11T04:53:38;45.27;;;20.97;;
75169;SDS011;63749;49.186;9.222;2023-02-11T04:56:03;47.40;;;21.57;;
75169;SDS011;63749;49.186;9.222;2023-02-11T04:58:29;46.10;;;19.53;;
75169;SDS011;63749;49.186;9.222;2023-02-11T05:00:54;49.33;;;20.30;;
75169;SDS011;63749;49.186;9.222;2023-02-11T05:03:20;41.60;;;18.77;;
75169;SDS011;63749;49.186;9.222;2023-02-11T05:05:45;48.63;;;18.80;;
75169;SDS011;63749;49.186;9.222;2023-02-11T05:08:11;44.70;;;19.37;;
75169;SDS011;63749;49.186;9.222;2023-02-11T05:10:36;42.83;;;18.43;;
75169;SDS011;63749;49.186;9.222;2023-02-11T05:13:02;44.50;;;18.83;;
75169;SDS011;63749;49.186;9.222;2023-02-11T05:15:27;41.33;;;18.60;;
75169;SDS011;63749;49.186;9.222;2023-02-11T05:17:53;42.63;;;18.88;;
75169;SDS011;63749;49.186;9.222;2023-02-11T05:20:19;40.47;;;18.33;;
75169;SDS011;63749;49.186;9.222;2023-02-11T05:22:44;44.55;;;19.05;;
75169;SDS011;63749;49.186;9.222;2023-02-11T05:25:10;38.83;;;18.07;;
75169;SDS011;63749;49.186;9.222;2023-02-11T05:27:35;43.17;;;19.17;;
75169;SDS011;63749;49.186;9.222;2023-02-11T05:30:01;42.77;;;19.30;;
75169;SDS011;63749;49.186;9.222;2023-02-11T05:32:26;41.15;;;19.13;;
75169;SDS011;63749;49.186;9.222;2023-02-11T05:34:52;45.33;;;20.20;;
75169;SDS011;63749;49.186;9.222;2023-02-11T05:37:17;48.47;;;22.50;;
75169;SDS011;63749;49.186;9.222;2023-02-11T05:39:42;43.80;;;20.50;;
75169;SDS011;63749;49.186;9.222;2023-02-11T05:42:08;44.90;;;19.70;;
75169;SDS011;63749;49.186;9.222;2023-02-11T05:44:33;44.60;;;21.07;;
75169;SDS011;63749;49.186;9.222;2023-02-11T05:46:59;43.13;;;19.40;;
75169;SDS011;63749;49.186;9.222;2023-02-11T05:49:24;44.80;;;19.90;;
75169;SDS011;63749;49.186;9.222;2023-02-11T05:51:49;42.03;;;18.90;;
75169;SDS011;63749;49.186;9.222;2023-02-11T05:54:15;40.35;;;18.70;;
75169;SDS011;63749;49.186;9.222;2023-02-11T05:56:41;40.20;;;18.40;;
75169;SDS011;63749;49.186;9.222;2023-02-11T05:59:06;40.00;;;18.50;;
75169;SDS011;63749;49.186;9.222;2023-02-11T06:01:32;39.43;;;17.73;;
75169;SDS011;63749;49.186;9.222;2023-02-11T06:03:58;40.22;;;19.05;;
75169;SDS011;63749;49.186;9.222;2023-02-11T06:06:24;42.80;;;19.30;;
75169;SDS011;63749;49.186;9.222;2023-02-11T06:08:49;39.10;;;18.30;;
75169;SDS011;63749;49.186;9.222;2023-02-11T06:11:15;41.90;;;18.83;;
75169;SDS011;63749;49.186;9.222;2023-02-11T06:13:41;38.33;;;18.58;;
75169;SDS011;63749;49.186;9.222;2023-02-11T06:16:07;35.93;;;17.00;;
75169;SDS011;63749;49.186;9.222;2023-02-11T06:18:32;44.87;;;17.73;;
75169;SDS011;63749;49.186;9.222;2023-02-11T06:20:58;36.08;;;16.33;;
75169;SDS011;63749;49.186;9.222;2023-02-11T06:23:24;35.67;;;16.90;;
75169;SDS011;63749;49.186;9.222;2023-02-11T06:25:50;39.83;;;16.13;;
75169;SDS011;63749;49.186;9.222;2023-02-11T06:28:16;41.63;;;16.73;;
75169;SDS011;63749;49.186;9.222;2023-02-11T06:30:42;36.08;;;16.58;;
75169;SDS011;63749;49.186;9.222;2023-02-11T06:33:08;35.90;;;16.00;;
75169;SDS011;63749;49.186;9.222;2023-02-11T06:35:33;38.30;;;16.07;;
75169;SDS011;63749;49.186;9.222;2023-02-11T06:37:59;35.53;;;16.38;;
75169;SDS011;63749;49.186;9.222;2023-02-11T06:40:25;35.73;;;16.17;;
75169;SDS011;63749;49.186;9.222;2023-02-11T06:42:50;34.00;;;15.67;;
75169;SDS011;63749;49.186;9.222;2023-02-11T06:45:16;34.75;;;15.52;;
75169;SDS011;63749;49.186;9.222;2023-02-11T06:47:41;30.90;;;15.20;;
75169;SDS011;63749;49.186;9.222;2023-02-11T06:50:09;34.30;;;15.03;;
75169;SDS011;63749;49.186;9.222;2023-02-11T06:52:36;33.03;;;15.90;;
75169;SDS011;63749;49.186;9.222;2023-02-11T06:55:01;36.43;;;16.57;;
75169;SDS011;63749;49.186;9.222;2023-02-11T06:57:27;40.27;;;19.00;;
75169;SDS011;63749;49.186;9.222;2023-02-11T06:59:53;40.65;;;18.40;;
75169;SDS011;63749;49.186;9.222;2023-02-11T07:02:19;40.85;;;19.35;;
75169;SDS011;63749;49.186;9.222;2023-02-11T07:04:44;47.67;;;21.73;;
75169;SDS011;63749;49.186;9.222;2023-02-11T07:07:10;42.73;;;18.50;;
75169;SDS011;63749;49.186;9.222;2023-02-11T07:09:35;36.33;;;17.07;;
75169;SDS011;63749;49.186;9.222;2023-02-11T07:12:00;33.37;;;15.77;;
75169;SDS011;63749;49.186;9.222;2023-02-11T07:14:26;35.67;;;16.43;;
75169;SDS011;63749;49.186;9.222;2023-02-11T07:16:51;34.67;;;16.47;;
75169;SDS011;63749;49.186;9.222;2023-02-11T07:19:16;36.38;;;15.82;;
75169;SDS011;63749;49.186;9.222;2023-02-11T07:21:42;33.50;;;15.57;;
75169;SDS011;63749;49.186;9.222;2023-02-11T07:24:07;35.07;;;15.80;;
75169;SDS011;63749;49.186;9.222;2023-02-11T07:26:34;34.35;;;16.00;;
75169;SDS011;63749;49.186;9.222;2023-02-11T07:29:00;31.77;;;15.00;;
75169;SDS011;63749;49.186;9.222;2023-02-11T07:31:26;32.45;;;15.50;;
75169;SDS011;63749;49.186;9.222;2023-02-11T07:33:53;31.60;;;15.57;;
75169;SDS011;63749;49.186;9.222;2023-02-11T07:36:22;32.83;;;15.03;;
75169;SDS011;63749;49.186;9.222;2023-02-11T07:38:48;32.65;;;15.70;;
75169;SDS011;63749;49.186;9.222;2023-02-11T07:41:15;36.53;;;15.33;;
75169;SDS011;63749;49.186;9.222;2023-02-11T07:43:42;33.25;;;15.57;;
75169;SDS011;63749;49.186;9.222;2023-02-11T07:46:09;32.42;;;15.68;;
75169;SDS011;63749;49.186;9.222;2023-02-11T07:48:37;32.53;;;15.05;;
75169;SDS011;63749;49.186;9.222;2023-02-11T07:51:06;33.63;;;15.83;;
75169;SDS011;63749;49.186;9.222;2023-02-11T07:53:43;32.63;;;15.27;;
75169;SDS011;63749;49.186;9.222;2023-02-11T07:56:09;31.33;;;15.20;;
75169;SDS011;63749;49.186;9.222;2023-02-11T07:58:35;32.38;;;16.00;;
75169;SDS011;63749;49.186;9.222;2023-02-11T08:01:02;31.45;;;15.55;;
75169;SDS011;63749;49.186;9.222;2023-02-11T08:03:28;32.22;;;15.85;;
75169;SDS011;63749;49.186;9.222;2023-02-11T08:05:54;32.90;;;15.67;;
75169;SDS011;63749;49.186;9.222;2023-02-11T08:08:19;32.53;;;15.60;;
75169;SDS011;63749;49.186;9.222;2023-02-11T08:10:45;31.17;;;15.87;;
75169;SDS011;63749;49.186;9.222;2023-02-11T08:13:10;32.83;;;15.50;;
75169;SDS011;63749;49.186;9.222;2023-02-11T08:15:35;34.27;;;15.63;;
75169;SDS011;63749;49.186;9.222;2023-02-11T08:18:00;37.03;;;16.43;;
75169;SDS011;63749;49.186;9.222;2023-02-11T08:20:26;35.07;;;16.00;;
75169;SDS011;63749;49.186;9.222;2023-02-11T08:22:51;32.80;;;16.33;;
75169;SDS011;63749;49.186;9.222;2023-02-11T08:25:16;37.43;;;15.93;;
75169;SDS011;63749;49.186;9.222;2023-02-11T08:27:42;33.97;;;15.93;;
75169;SDS011;63749;49.186;9.222;2023-02-11T08:30:07;35.27;;;16.20;;
75169;SDS011;63749;49.186;9.222;2023-02-11T08:32:33;32.60;;;15.45;;
75169;SDS011;63749;49.186;9.222;2023-02-11T08:34:59;33.42;;;16.30;;
75169;SDS011;63749;49.186;9.222;2023-02-11T08:37:24;36.20;;;16.47;;
75169;SDS011;63749;49.186;9.222;2023-02-11T08:39:50;32.23;;;16.17;;
75169;SDS011;63749;49.186;9.222;2023-02-11T08:42:15;34.10;;;15.77;;
75169;SDS011;63749;49.186;9.222;2023-02-11T08:44:40;30.05;;;15.15;;
75169;SDS011;63749;49.186;9.222;2023-02-11T08:47:07;31.70;;;15.10;;
75169;SDS011;63749;49.186;9.222;2023-02-11T08:49:33;29.05;;;15.15;;
75169;SDS011;63749;49.186;9.222;2023-02-11T08:51:59;32.07;;;15.27;;
75169;SDS011;63749;49.186;9.222;2023-02-11T08:54:28;30.75;;;15.15;;
75169;SDS011;63749;49.186;9.222;2023-02-11T08:56:54;32.17;;;14.18;;
75169;SDS011;63749;49.186;9.222;2023-02-11T08:59:20;26.85;;;14.10;;
75169;SDS011;63749;49.186;9.222;2023-02-11T09:01:46;28.15;;;14.68;;
75169;SDS011;63749;49.186;9.222;2023-02-11T09:04:12;28.73;;;14.10;;
75169;SDS011;63749;49.186;9.222;2023-02-11T09:06:38;27.98;;;14.55;;
75169;SDS011;63749;49.186;9.222;2023-02-11T09:09:03;27.87;;;14.20;;
75169;SDS011;63749;49.186;9.222;2023-02-11T09:11:31;27.25;;;14.35;;
75169;SDS011;63749;49.186;9.222;2023-02-11T09:13:59;25.08;;;13.18;;
75169;SDS011;63749;49.186;9.222;2023-02-11T09:16:27;26.83;;;13.20;;
75169;SDS011;63749;49.186;9.222;2023-02-11T09:18:56;30.67;;;14.70;;
75169;SDS011;63749;49.186;9.222;2023-02-11T09:21:23;27.58;;;12.90;;
75169;SDS011;63749;49.186;9.222;2023-02-11T09:23:49;25.10;;;12.43;;
75169;SDS011;63749;49.186;9.222;2023-02-11T09:26:22;27.90;;;14.93;;
75169;SDS011;63749;49.186;9.222;2023-02-11T09:28:49;25.08;;;12.90;;
75169;SDS011;63749;49.186;9.222;2023-02-11T09:31:16;25.07;;;12.83;;
75169;SDS011;63749;49.186;9.222;2023-02-11T09:33:45;23.70;;;11.57;;
75169;SDS011;63749;49.186;9.222;2023-02-11T09:36:13;23.80;;;12.10;;
75169;SDS011;63749;49.186;9.222;2023-02-11T09:38:40;24.13;;;11.80;;
75169;SDS011;63749;49.186;9.222;2023-02-11T09:41:12;24.00;;;11.90;;
75169;SDS011;63749;49.186;9.222;2023-02-11T09:43:57;25.80;;;12.30;;
75169;SDS011;63749;49.186;9.222;2023-02-11T09:46:28;23.73;;;11.95;;
75169;SDS011;63749;49.186;9.222;2023-02-11T09:48:56;23.77;;;11.70;;
75169;SDS011;63749;49.186;9.222;2023-02-11T09:51:43;22.08;;;11.57;;
75169;SDS011;63749;49.186;9.222;2023-02-11T09:54:27;23.00;;;12.00;;
75169;SDS011;63749;49.186;9.222;2023-02-11T09:56:58;23.40;;;11.65;;
75169;SDS011;63749;49.186;9.222;2023-02-11T09:59:23;24.63;;;11.70;;
75169;SDS011;63749;49.186;9.222;2023-02-11T10:01:49;22.97;;;11.63;;
75169;SDS011;63749;49.186;9.222;2023-02-11T10:04:28;22.33;;;11.37;;
75169;SDS011;63749;49.186;9.222;2023-02-11T10:15:24;19.65;;;10.27;;
75169;SDS011;63749;49.186;9.222;2023-02-11T10:20:33;19.45;;;9.32;;
75169;SDS011;63749;49.186;9.222;2023-02-11T10:23:09;22.55;;;10.15;;
75169;SDS011;63749;49.186;9.222;2023-02-11T10:25:43;22.45;;;11.10;;
75169;SDS011;63749;49.186;9.222;2023-02-11T10:28:16;25.33;;;11.43;;
75169;SDS011;63749;49.186;9.222;2023-02-11T10:33:45;26.08;;;10.88;;
75169;SDS011;63749;49.186;9.222;2023-02-11T10:36:17;22.63;;;10.63;;
75169;SDS011;63749;49.186;9.222;2023-02-11T10:38:44;21.20;;;10.48;;
75169;SDS011;63749;49.186;9.222;2023-02-11T10:41:15;24.70;;;11.10;;
75169;SDS011;63749;49.186;9.222;2023-02-11T10:43:44;22.73;;;10.35;;
75169;SDS011;63749;49.186;9.222;2023-02-11T10:46:13;23.17;;;10.77;;
75169;SDS011;63749;49.186;9.222;2023-02-11T10:48:48;21.38;;;10.95;;
75169;SDS011;63749;49.186;9.222;2023-02-11T10:56:33;23.17;;;11.07;;
75169;SDS011;63749;49.186;9.222;2023-02-11T10:59:04;23.50;;;11.27;;
75169;SDS011;63749;49.186;9.222;2023-02-11T11:01:45;25.00;;;11.43;;
75169;SDS011;63749;49.186;9.222;2023-02-11T11:07:14;22.40;;;11.30;;
75169;SDS011;63749;49.186;9.222;2023-02-11T11:09:50;22.95;;;10.80;;
75169;SDS011;63749;49.186;9.222;2023-02-11T11:17:35;22.30;;;11.20;;
75169;SDS011;63749;49.186;9.222;2023-02-11T11:20:22;22.97;;;12.17;;
75169;SDS011;63749;49.186;9.222;2023-02-11T11:23:06;21.88;;;11.43;;
75169;SDS011;63749;49.186;9.222;2023-02-11T11:25:38;22.17;;;11.60;;
75169;SDS011;63749;49.186;9.222;2023-02-11T11:28:15;20.88;;;10.95;;
75169;SDS011;63749;49.186;9.222;2023-02-11T11:30:45;23.15;;;11.68;;
75169;SDS011;63749;49.186;9.222;2023-02-11T11:33:15;23.87;;;10.83;;
75169;SDS011;63749;49.186;9.222;2023-02-11T11:35:53;20.65;;;10.48;;
75169;SDS011;63749;49.186;9.222;2023-02-11T11:38:21;22.40;;;10.95;;
75169;SDS011;63749;49.186;9.222;2023-02-11T11:40:46;20.47;;;10.97;;
75169;SDS011;63749;49.186;9.222;2023-02-11T11:43:53;20.67;;;10.50;;
75169;SDS011;63749;49.186;9.222;2023-02-11T11:46:25;23.42;;;10.85;;
75169;SDS011;63749;49.186;9.222;2023-02-11T11:48:57;22.90;;;11.35;;
75169;SDS011;63749;49.186;9.222;2023-02-11T11:51:46;19.00;;;10.53;;
75169;SDS011;63749;49.186;9.222;2023-02-11T11:54:20;20.95;;;11.30;;
75169;SDS011;63749;49.186;9.222;2023-02-11T11:56:59;22.33;;;11.80;;
75169;SDS011;63749;49.186;9.222;2023-02-11T11:59:29;21.15;;;11.20;;
75169;SDS011;63749;49.186;9.222;2023-02-11T12:02:00;21.88;;;11.52;;
75169;SDS011;63749;49.186;9.222;2023-02-11T12:04:45;23.73;;;12.87;;
75169;SDS011;63749;49.186;9.222;2023-02-11T12:09:47;25.13;;;13.00;;
75169;SDS011;63749;49.186;9.222;2023-02-11T12:12:30;26.35;;;13.57;;
75169;SDS011;63749;49.186;9.222;2023-02-11T12:23:46;24.67;;;13.43;;
75169;SDS011;63749;49.186;9.222;2023-02-11T12:26:18;25.48;;;12.85;;
75169;SDS011;63749;49.186;9.222;2023-02-11T12:33:58;24.95;;;13.32;;
75169;SDS011;63749;49.186;9.222;2023-02-11T12:36:34;27.80;;;13.73;;
75169;SDS011;63749;49.186;9.222;2023-02-11T12:42:13;28.25;;;13.80;;
75169;SDS011;63749;49.186;9.222;2023-02-11T12:45:12;27.02;;;13.73;;
75169;SDS011;63749;49.186;9.222;2023-02-11T12:50:53;22.73;;;12.63;;
75169;SDS011;63749;49.186;9.222;2023-02-11T12:53:35;26.42;;;13.77;;
75169;SDS011;63749;49.186;9.222;2023-02-11T12:56:12;23.35;;;13.27;;
75169;SDS011;63749;49.186;9.222;2023-02-11T12:58:44;24.10;;;12.95;;
75169;SDS011;63749;49.186;9.222;2023-02-11T13:06:44;24.08;;;13.07;;
75169;SDS011;63749;49.186;9.222;2023-02-11T13:09:17;24.23;;;13.15;;
75169;SDS011;63749;49.186;9.222;2023-02-11T13:11:49;25.63;;;13.82;;
75169;SDS011;63749;49.186;9.222;2023-02-11T13:14:32;25.33;;;13.63;;
75169;SDS011;63749;49.186;9.222;2023-02-11T13:17:03;24.27;;;13.05;;
75169;SDS011;63749;49.186;9.222;2023-02-11T13:19:44;24.67;;;13.30;;
75169;SDS011;63749;49.186;9.222;2023-02-11T13:22:25;25.17;;;14.52;;
75169;SDS011;63749;49.186;9.222;2023-02-11T13:25:01;25.50;;;13.60;;
75169;SDS011;63749;49.186;9.222;2023-02-11T13:33:34;25.70;;;14.18;;
75169;SDS011;63749;49.186;9.222;2023-02-11T13:35:41;25.80;;;14.48;;
75169;SDS011;63749;49.186;9.222;2023-02-11T13:40:40;24.97;;;14.70;;
75169;SDS011;63749;49.186;9.222;2023-02-11T13:43:17;25.08;;;14.30;;
75169;SDS011;63749;49.186;9.222;2023-02-11T13:45:46;23.88;;;14.40;;
75169;SDS011;63749;49.186;9.222;2023-02-11T13:48:20;23.23;;;14.55;;
75169;SDS011;63749;49.186;9.222;2023-02-11T13:50:52;24.40;;;14.65;;
75169;SDS011;63749;49.186;9.222;2023-02-11T13:53:20;23.17;;;14.73;;
75169;SDS011;63749;49.186;9.222;2023-02-11T13:55:47;24.77;;;15.57;;
75169;SDS011;63749;49.186;9.222;2023-02-11T13:58:15;22.50;;;15.32;;
75169;SDS011;63749;49.186;9.222;2023-02-11T14:09:38;23.02;;;14.50;;
75169;SDS011;63749;49.186;9.222;2023-02-11T14:11:42;24.92;;;15.77;;
75169;SDS011;63749;49.186;9.222;2023-02-11T14:22:17;26.25;;;15.98;;
75169;SDS011;63749;49.186;9.222;2023-02-11T14:25:00;25.20;;;15.68;;
75169;SDS011;63749;49.186;9.222;2023-02-11T14:27:28;25.10;;;16.42;;
75169;SDS011;63749;49.186;9.222;2023-02-11T14:38:45;25.00;;;15.90;;
75169;SDS011;63749;49.186;9.222;2023-02-11T14:41:30;24.25;;;15.57;;
75169;SDS011;63749;49.186;9.222;2023-02-11T14:44:05;24.67;;;14.48;;
75169;SDS011;63749;49.186;9.222;2023-02-11T14:46:42;26.03;;;14.90;;
75169;SDS011;63749;49.186;9.222;2023-02-11T14:49:20;27.65;;;15.50;;
75169;SDS011;63749;49.186;9.222;2023-02-11T14:51:57;22.00;;;14.02;;
75169;SDS011;63749;49.186;9.222;2023-02-11T14:54:28;25.77;;;14.55;;
75169;SDS011;63749;49.186;9.222;2023-02-11T14:59:56;24.40;;;14.37;;
75169;SDS011;63749;49.186;9.222;2023-02-11T15:02:34;22.30;;;13.98;;
75169;SDS011;63749;49.186;9.222;2023-02-11T15:07:47;23.33;;;13.18;;
75169;SDS011;63749;49.186;9.222;2023-02-11T15:10:16;21.90;;;12.73;;
75169;SDS011;63749;49.186;9.222;2023-02-11T15:12:44;23.17;;;12.90;;
75169;SDS011;63749;49.186;9.222;2023-02-11T15:15:14;22.42;;;12.77;;
75169;SDS011;63749;49.186;9.222;2023-02-11T15:17:40;22.73;;;12.70;;
75169;SDS011;63749;49.186;9.222;2023-02-11T15:20:12;23.02;;;12.57;;
75169;SDS011;63749;49.186;9.222;2023-02-11T15:22:43;21.58;;;11.93;;
75169;SDS011;63749;49.186;9.222;2023-02-11T15:25:13;22.13;;;12.57;;
75169;SDS011;63749;49.186;9.222;2023-02-11T15:27:46;23.98;;;13.32;;
75169;SDS011;63749;49.186;9.222;2023-02-11T15:30:18;25.42;;;13.70;;
75169;SDS011;63749;49.186;9.222;2023-02-11T15:32:51;25.63;;;14.07;;
75169;SDS011;63749;49.186;9.222;2023-02-11T15:35:22;25.25;;;13.68;;
75169;SDS011;63749;49.186;9.222;2023-02-11T15:37:52;26.53;;;13.90;;
75169;SDS011;63749;49.186;9.222;2023-02-11T15:40:19;28.42;;;14.52;;
75169;SDS011;63749;49.186;9.222;2023-02-11T15:42:53;30.45;;;15.32;;
75169;SDS011;63749;49.186;9.222;2023-02-11T15:45:23;30.85;;;15.50;;
75169;SDS011;63749;49.186;9.222;2023-02-11T15:48:40;29.13;;;16.45;;
75169;SDS011;63749;49.186;9.222;2023-02-11T15:50:40;26.07;;;13.73;;
75169;SDS011;63749;49.186;9.222;2023-02-11T15:55:47;24.65;;;13.57;;
75169;SDS011;63749;49.186;9.222;2023-02-11T15:58:18;27.08;;;14.10;;
75169;SDS011;63749;49.186;9.222;2023-02-11T16:00:46;25.88;;;13.23;;
75169;SDS011;63749;49.186;9.222;2023-02-11T16:03:23;23.37;;;13.47;;
75169;SDS011;63749;49.186;9.222;2023-02-11T16:05:51;25.75;;;13.02;;
75169;SDS011;63749;49.186;9.222;2023-02-11T16:08:24;26.43;;;13.90;;
75169;SDS011;63749;49.186;9.222;2023-02-11T16:10:57;23.43;;;12.90;;
75169;SDS011;63749;49.186;9.222;2023-02-11T16:13:27;24.10;;;12.88;;
75169;SDS011;63749;49.186;9.222;2023-02-11T16:16:00;24.10;;;12.82;;
75169;SDS011;63749;49.186;9.222;2023-02-11T16:18:38;22.95;;;12.50;;
75169;SDS011;63749;49.186;9.222;2023-02-11T16:21:15;24.00;;;13.40;;
75169;SDS011;63749;49.186;9.222;2023-02-11T16:23:47;27.00;;;13.27;;
75169;SDS011;63749;49.186;9.222;2023-02-11T16:26:28;24.30;;;12.57;;
75169;SDS011;63749;49.186;9.222;2023-02-11T16:31:35;25.05;;;12.70;;
75169;SDS011;63749;49.186;9.222;2023-02-11T16:34:05;23.80;;;12.65;;
75169;SDS011;63749;49.186;9.222;2023-02-11T16:36:36;23.37;;;12.50;;
75169;SDS011;63749;49.186;9.222;2023-02-11T16:39:01;23.07;;;12.10;;
75169;SDS011;63749;49.186;9.222;2023-02-11T16:41:26;25.98;;;12.27;;
75169;SDS011;63749;49.186;9.222;2023-02-11T16:43:53;20.07;;;10.83;;
75169;SDS011;63749;49.186;9.222;2023-02-11T16:46:21;21.88;;;11.27;;
75169;SDS011;63749;49.186;9.222;2023-02-11T16:48:47;23.40;;;11.07;;
75169;SDS011;63749;49.186;9.222;2023-02-11T16:51:12;21.30;;;11.40;;